Time;durP1;ratioP1;P1;durP2;ratioP2;P2;SDS_P1;SDS_P2;PMS_P1;PMS_P2;Temp;Humidity;BMP_temperature;BMP_pressure;BME280_temperature;BME280_humidity;BME280_pressure;Samples;Min_cycle;Max_cycle;Signal;HPM_P1;HPM_P2
2022/04/02 00:02:20;;;;;;;1.52;0.77;;;5.60;81.20;;;;;;5039834;28;20813;-70
2022/04/02 00:04:47;;;;;;;3.60;0.90;;;5.60;82.00;;;;;;5032761;28;20069;-70
2022/04/02 00:07:15;;;;;;;1.20;0.60;;;5.50;82.30;;;;;;5018151;28;20050;-71
2022/04/02 00:09:41;;;;;;;2.83;0.75;;;5.50;82.90;;;;;;5002869;28;20076;-70
2022/04/02 00:12:09;;;;;;;2.25;0.80;;;5.50;83.00;;;;;;5033194;28;20044;-70
2022/04/02 00:14:35;;;;;;;1.80;0.80;;;5.40;83.20;;;;;;5038218;28;20131;-70
2022/04/02 00:17:01;;;;;;;0.88;0.60;;;5.50;83.80;;;;;;5023369;28;20091;-71
2022/04/02 00:19:30;;;;;;;2.05;0.70;;;5.40;84.00;;;;;;4998592;28;20047;-71
2022/04/02 00:21:57;;;;;;;4.15;0.93;;;5.40;84.40;;;;;;4994263;28;20084;-70
2022/04/02 00:24:23;;;;;;;1.38;0.50;;;5.50;84.90;;;;;;5017021;28;20066;-69
2022/04/02 00:26:50;;;;;;;0.93;0.70;;;5.40;85.40;;;;;;5002271;28;20124;-70
2022/04/02 00:29:16;;;;;;;1.15;0.47;;;5.30;85.90;;;;;;5033109;28;20053;-71
2022/04/02 00:31:43;;;;;;;3.65;0.60;;;5.30;86.50;;;;;;5019194;28;20045;-70
2022/04/02 00:34:11;;;;;;;3.70;0.60;;;5.30;86.70;;;;;;5018483;28;20068;-70
2022/04/02 00:36:38;;;;;;;7.07;0.65;;;5.30;87.20;;;;;;5008865;28;20056;-70
2022/04/02 00:39:07;;;;;;;2.20;0.70;;;5.30;87.90;;;;;;5002577;28;20048;-70
2022/04/02 00:41:34;;;;;;;2.53;0.70;;;5.20;88.80;;;;;;5022104;28;20033;-70
2022/04/02 00:44:17;;;;;;;2.17;0.70;;;5.20;89.50;;;;;;5019320;28;20116;-71
2022/04/02 00:46:44;;;;;;;1.88;0.70;;;5.20;90.20;;;;;;5027538;28;20517;-70
2022/04/02 00:49:11;;;;;;;1.77;0.55;;;5.20;90.50;;;;;;5027534;28;20037;-70
2022/04/02 00:51:43;;;;;;;3.15;0.60;;;5.20;91.00;;;;;;5032873;28;20041;-70
2022/04/02 00:54:14;;;;;;;3.60;0.60;;;5.10;91.70;;;;;;5004750;28;20136;-70
2022/04/02 00:56:41;;;;;;;1.52;0.60;;;5.10;91.80;;;;;;5000525;28;20041;-70
2022/04/02 00:59:08;;;;;;;2.97;0.73;;;5.10;92.10;;;;;;5039519;28;20488;-70
2022/04/02 01:01:35;;;;;;;2.38;0.65;;;5.00;92.40;;;;;;5005634;28;20556;-70
2022/04/02 01:04:15;;;;;;;0.85;0.60;;;5.00;92.50;;;;;;5031124;28;20046;-71
2022/04/02 01:06:43;;;;;;;2.90;0.75;;;5.00;92.80;;;;;;5033004;28;20041;-69
2022/04/02 01:09:10;;;;;;;1.27;0.57;;;5.00;93.10;;;;;;5004508;28;20461;-72
2022/04/02 01:11:41;;;;;;;2.97;0.65;;;4.90;93.30;;;;;;5033651;28;20041;-71
2022/04/02 01:14:08;;;;;;;1.52;0.50;;;4.90;93.70;;;;;;4991931;28;20095;-70
2022/04/02 01:16:34;;;;;;;1.23;0.50;;;4.90;94.00;;;;;;5003388;28;20366;-70
2022/04/02 01:19:01;;;;;;;3.72;0.88;;;4.80;94.30;;;;;;5035478;28;20076;-70
2022/04/02 01:21:29;;;;;;;1.77;0.60;;;4.90;94.50;;;;;;5027178;28;20041;-70
2022/04/02 01:23:56;;;;;;;3.05;0.70;;;4.80;94.70;;;;;;5027185;28;20045;-71
2022/04/02 01:26:22;;;;;;;1.80;0.90;;;4.80;94.60;;;;;;4998999;28;20158;-70
2022/04/02 01:28:53;;;;;;;1.05;0.52;;;4.80;94.90;;;;;;5017859;28;20512;-70
2022/04/02 01:31:21;;;;;;;1.55;0.68;;;4.80;95.10;;;;;;5003565;28;20042;-70
2022/04/02 01:33:51;;;;;;;3.10;0.75;;;4.80;95.30;;;;;;5034986;28;20037;-69
2022/04/02 01:36:20;;;;;;;1.30;0.70;;;4.70;95.60;;;;;;4999435;28;20041;-69
2022/04/02 01:38:46;;;;;;;3.45;0.52;;;4.70;96.00;;;;;;5028809;28;20494;-70
2022/04/02 01:41:13;;;;;;;4.30;0.80;;;4.70;96.40;;;;;;5015616;28;20052;-70
2022/04/02 01:43:41;;;;;;;1.83;0.60;;;4.70;96.50;;;;;;4999453;28;20049;-70
2022/04/02 01:46:09;;;;;;;1.40;0.68;;;4.60;96.60;;;;;;5032465;28;20049;-71
2022/04/02 01:48:35;;;;;;;1.15;0.57;;;4.70;96.90;;;;;;5033035;28;20065;-70
2022/04/02 01:51:02;;;;;;;1.40;0.80;;;4.60;97.00;;;;;;5003215;28;20049;-69
2022/04/02 01:53:29;;;;;;;1.80;0.47;;;4.60;97.40;;;;;;5007990;28;20060;-70
2022/04/02 01:55:55;;;;;;;1.70;0.85;;;4.60;97.60;;;;;;4998756;28;20037;-70
2022/04/02 01:58:22;;;;;;;1.45;0.52;;;4.50;97.70;;;;;;4965636;28;20516;-70
2022/04/02 02:00:49;;;;;;;0.73;0.70;;;4.50;97.80;;;;;;5017163;28;20156;-70
2022/04/02 02:03:15;;;;;;;2.70;0.70;;;4.50;98.00;;;;;;4987240;28;20057;-70
2022/04/02 02:05:42;;;;;;;1.15;0.77;;;4.50;98.30;;;;;;4982380;28;20039;-71
2022/04/02 02:08:11;;;;;;;1.40;0.63;;;4.50;98.70;;;;;;4996239;28;20453;-70
2022/04/02 02:10:37;;;;;;;1.80;0.52;;;4.50;98.80;;;;;;5006073;28;20057;-70
2022/04/02 02:13:04;;;;;;;2.75;0.70;;;4.40;98.90;;;;;;4996055;28;20517;-70
2022/04/02 02:15:31;;;;;;;1.08;0.50;;;4.40;99.30;;;;;;5008514;28;20041;-70
2022/04/02 02:17:57;;;;;;;1.88;0.63;;;4.40;99.60;;;;;;5006006;28;20042;-70
2022/04/02 02:20:23;;;;;;;1.20;0.70;;;4.40;99.90;;;;;;4999057;28;20053;-69
2022/04/02 02:22:50;;;;;;;2.10;1.10;;;4.30;99.90;;;;;;5010641;28;20031;-71
2022/04/02 02:25:17;;;;;;;1.52;0.75;;;4.30;99.90;;;;;;4999961;28;20040;-70
2022/04/02 02:27:45;;;;;;;2.42;1.13;;;4.20;99.90;;;;;;4996330;28;20049;-70
2022/04/02 02:30:14;;;;;;;1.80;0.90;;;4.20;99.90;;;;;;4993800;28;20042;-70
2022/04/02 02:32:40;;;;;;;2.15;0.70;;;4.20;99.90;;;;;;5013044;28;20121;-70
2022/04/02 02:38:10;;;;;;;1.63;0.70;;;4.20;99.90;;;;;;5021738;28;20041;-70
2022/04/02 02:40:38;;;;;;;1.30;0.80;;;4.30;99.90;;;;;;5028583;28;20042;-70
2022/04/02 02:43:06;;;;;;;1.27;0.75;;;4.20;99.90;;;;;;4998943;28;20037;-70
2022/04/02 02:45:33;;;;;;;1.98;0.95;;;4.20;99.90;;;;;;5031018;28;20518;-69
2022/04/02 02:48:00;;;;;;;2.50;0.90;;;4.10;99.90;;;;;;5019972;28;20046;-70
2022/04/02 02:50:27;;;;;;;2.95;1.50;;;4.20;99.90;;;;;;5017472;28;20033;-70
2022/04/02 02:52:53;;;;;;;2.35;1.17;;;4.20;99.90;;;;;;5026343;28;20033;-71
2022/04/02 02:55:19;;;;;;;2.63;1.00;;;4.30;99.90;;;;;;5033989;28;20033;-70
2022/04/02 02:57:47;;;;;;;3.72;0.80;;;4.20;99.90;;;;;;5022005;28;20041;-71
2022/04/02 03:00:15;;;;;;;2.88;0.82;;;4.20;99.90;;;;;;5015620;28;20100;-70
2022/04/02 03:02:42;;;;;;;2.47;0.95;;;4.20;99.90;;;;;;5019702;28;20029;-70
2022/04/02 03:05:13;;;;;;;1.83;0.93;;;4.20;99.90;;;;;;5019241;28;20133;-70
2022/04/02 03:07:48;;;;;;;2.00;0.90;;;4.20;99.90;;;;;;5024740;28;20046;-70
2022/04/02 03:10:23;;;;;;;1.65;0.90;;;4.20;99.90;;;;;;5038347;28;20049;-70
2022/04/02 03:12:51;;;;;;;1.45;0.85;;;4.20;99.90;;;;;;5018147;28;20079;-70
2022/04/02 03:15:18;;;;;;;3.60;0.68;;;4.10;99.90;;;;;;5034342;28;20057;-71
2022/04/02 03:17:45;;;;;;;3.00;0.57;;;4.10;99.90;;;;;;5039413;28;20107;-69
2022/04/02 03:20:12;;;;;;;2.30;0.70;;;4.20;99.90;;;;;;5033526;28;20061;-70
2022/04/02 03:22:40;;;;;;;2.70;0.70;;;4.10;99.90;;;;;;5035832;28;20044;-69
2022/04/02 03:25:13;;;;;;;1.48;0.80;;;4.10;99.90;;;;;;5034658;28;20030;-69
2022/04/02 03:27:39;;;;;;;0.98;0.60;;;4.10;99.90;;;;;;5024444;28;20050;-70
2022/04/02 03:30:09;;;;;;;1.55;0.77;;;4.10;99.90;;;;;;5018906;28;20535;-70
2022/04/02 03:32:35;;;;;;;1.60;0.65;;;4.10;99.90;;;;;;5002670;28;20073;-70
2022/04/02 03:35:02;;;;;;;1.00;0.50;;;4.00;99.90;;;;;;5023674;28;20041;-70
2022/04/02 03:37:30;;;;;;;1.30;0.60;;;3.90;99.90;;;;;;5023754;28;20034;-70
2022/04/02 03:39:57;;;;;;;1.40;0.80;;;4.00;99.90;;;;;;5023576;28;21062;-70
2022/04/02 03:42:23;;;;;;;3.75;0.80;;;3.90;99.90;;;;;;4992136;28;20045;-70
2022/04/02 03:44:49;;;;;;;0.60;0.60;;;3.90;99.90;;;;;;4999359;28;20042;-70
2022/04/02 03:47:16;;;;;;;3.55;0.80;;;3.90;99.90;;;;;;5013114;28;20111;-70
2022/04/02 03:49:44;;;;;;;2.17;0.77;;;3.90;99.90;;;;;;5012552;28;20041;-70
2022/04/02 03:52:11;;;;;;;1.80;0.80;;;3.80;99.90;;;;;;5013267;28;20042;-69
2022/04/02 03:54:39;;;;;;;8.90;0.73;;;3.90;99.90;;;;;;4993299;28;20111;-71
2022/04/02 03:57:07;;;;;;;2.55;0.70;;;3.90;99.90;;;;;;4987555;28;20150;-70
2022/04/02 03:59:35;;;;;;;2.28;0.75;;;3.80;99.90;;;;;;4979208;28;20489;-70
2022/04/02 04:02:04;;;;;;;1.25;0.77;;;3.80;99.90;;;;;;5003529;28;20042;-70
2022/04/02 04:04:31;;;;;;;3.33;0.90;;;3.70;99.90;;;;;;5011308;28;20048;-69
2022/04/02 04:06:58;;;;;;;3.50;0.75;;;3.80;99.90;;;;;;5017335;28;20098;-69
2022/04/02 04:09:24;;;;;;;3.53;0.80;;;3.80;99.90;;;;;;5021894;28;20549;-70
2022/04/02 04:11:51;;;;;;;3.13;0.75;;;3.80;99.90;;;;;;5002518;28;20045;-70
2022/04/02 04:14:17;;;;;;;1.15;0.80;;;3.80;99.90;;;;;;5020296;28;20060;-70
2022/04/02 04:16:44;;;;;;;3.65;1.00;;;3.80;99.90;;;;;;5035178;28;20350;-69
2022/04/02 04:19:11;;;;;;;2.03;0.80;;;3.80;99.90;;;;;;5015198;28;20115;-69
2022/04/02 04:21:38;;;;;;;1.63;0.90;;;3.80;99.90;;;;;;5032955;28;20049;-70
2022/04/02 04:24:05;;;;;;;1.92;0.85;;;3.80;99.90;;;;;;4994133;28;20041;-70
2022/04/02 04:26:31;;;;;;;0.57;0.52;;;3.80;99.90;;;;;;5020915;28;20125;-70
2022/04/02 04:28:57;;;;;;;4.35;1.08;;;3.70;99.90;;;;;;5015544;28;20038;-69
2022/04/02 04:31:24;;;;;;;1.70;0.80;;;3.70;99.90;;;;;;5002171;28;20478;-70
2022/04/02 04:33:50;;;;;;;1.33;0.70;;;3.70;99.90;;;;;;5035868;28;20129;-70
2022/04/02 04:36:19;;;;;;;1.98;0.95;;;3.70;99.90;;;;;;5019123;28;20065;-70
2022/04/02 04:38:46;;;;;;;1.48;0.90;;;3.70;99.90;;;;;;5017569;28;20448;-70
2022/04/02 04:41:13;;;;;;;1.30;0.70;;;3.70;99.90;;;;;;5019345;28;20042;-70
2022/04/02 04:43:41;;;;;;;2.08;1.05;;;3.70;99.90;;;;;;5022869;28;20155;-70
2022/04/02 04:46:07;;;;;;;1.60;0.73;;;3.80;99.90;;;;;;5022026;28;20159;-70
2022/04/02 04:48:35;;;;;;;4.85;0.80;;;3.70;99.90;;;;;;5024466;28;20172;-70
2022/04/02 04:51:03;;;;;;;5.68;1.00;;;3.60;99.90;;;;;;5000713;28;20095;-69
2022/04/02 04:53:30;;;;;;;4.50;1.17;;;3.70;99.90;;;;;;5030782;28;20157;-70
2022/04/02 04:55:56;;;;;;;2.13;0.90;;;3.70;99.90;;;;;;5023336;28;20139;-69
2022/04/02 04:58:21;;;;;;;3.03;1.02;;;3.80;99.90;;;;;;5017607;28;20110;-70
2022/04/02 05:00:48;;;;;;;8.13;1.25;;;3.70;99.90;;;;;;5017306;28;20488;-69
2022/04/02 05:03:14;;;;;;;1.63;0.82;;;3.70;99.90;;;;;;5014032;28;20524;-70
2022/04/02 05:05:40;;;;;;;1.77;0.93;;;3.70;99.90;;;;;;5033369;28;20664;-69
2022/04/02 05:08:09;;;;;;;5.53;0.95;;;3.80;99.90;;;;;;5027962;28;20048;-70
2022/04/02 05:10:40;;;;;;;1.38;0.90;;;3.80;99.90;;;;;;5017267;28;20034;-68
2022/04/02 05:13:12;;;;;;;1.98;1.02;;;3.70;99.90;;;;;;5019849;28;20044;-70
2022/04/02 05:15:40;;;;;;;4.53;1.00;;;3.80;99.90;;;;;;4998900;28;20034;-70
2022/04/02 05:18:06;;;;;;;5.93;1.08;;;3.60;99.90;;;;;;4981746;28;20034;-70
2022/04/02 05:20:33;;;;;;;2.30;1.00;;;3.60;99.90;;;;;;5010846;28;20030;-70
2022/04/02 05:22:59;;;;;;;1.05;0.70;;;3.70;99.90;;;;;;5016894;28;20056;-70
2022/04/02 05:25:26;;;;;;;0.95;0.80;;;3.60;99.90;;;;;;4995959;28;20038;-70
2022/04/02 05:27:54;;;;;;;2.17;0.73;;;3.70;99.90;;;;;;4995311;28;20046;-70
2022/04/02 05:30:21;;;;;;;3.75;1.00;;;3.70;99.90;;;;;;4992951;28;20445;-70
2022/04/02 05:32:47;;;;;;;1.10;0.80;;;3.70;99.90;;;;;;5012039;28;20392;-71
2022/04/02 05:35:14;;;;;;;3.67;1.10;;;3.60;99.90;;;;;;5010403;28;20113;-70
2022/04/02 05:37:45;;;;;;;3.47;0.90;;;3.60;99.90;;;;;;4993943;28;20072;-70
2022/04/02 05:40:11;;;;;;;1.55;0.90;;;3.60;99.90;;;;;;5013517;28;20052;-69
2022/04/02 05:42:38;;;;;;;1.52;0.90;;;3.60;99.90;;;;;;4978771;28;20426;-71
2022/04/02 05:45:05;;;;;;;2.58;0.95;;;3.70;99.90;;;;;;4997093;28;20045;-71
2022/04/02 05:47:46;;;;;;;1.88;0.88;;;3.70;99.90;;;;;;4978476;28;20046;-71
2022/04/02 05:50:14;;;;;;;2.78;1.00;;;3.70;99.90;;;;;;4994492;28;20052;-70
2022/04/02 05:52:40;;;;;;;3.08;1.10;;;3.60;99.90;;;;;;5004632;28;20423;-69
2022/04/02 05:55:10;;;;;;;1.38;0.90;;;3.70;99.90;;;;;;5014104;28;20070;-70
2022/04/02 05:57:37;;;;;;;6.15;1.10;;;3.70;99.90;;;;;;4995404;28;20437;-71
2022/04/02 06:00:10;;;;;;;2.42;1.00;;;3.80;99.90;;;;;;5012133;28;20063;-69
2022/04/02 06:02:36;;;;;;;4.40;1.10;;;3.80;99.90;;;;;;5031938;28;20141;-71
2022/04/02 06:05:03;;;;;;;2.47;1.00;;;3.70;99.90;;;;;;5018041;28;20045;-70
2022/04/02 06:07:30;;;;;;;2.92;1.10;;;3.80;99.90;;;;;;5018974;28;20046;-72
2022/04/02 06:09:56;;;;;;;2.72;1.00;;;3.80;99.90;;;;;;5016598;28;20038;-71
2022/04/02 06:12:23;;;;;;;2.38;1.23;;;3.80;99.90;;;;;;5026396;28;20490;-70
2022/04/02 06:14:48;;;;;;;4.43;1.00;;;3.80;99.90;;;;;;5018709;28;20041;-69
2022/04/02 06:17:15;;;;;;;5.07;1.00;;;3.90;99.90;;;;;;5000853;28;20041;-71
2022/04/02 06:19:41;;;;;;;6.28;1.15;;;3.90;99.90;;;;;;5021856;28;20049;-69
2022/04/02 06:22:08;;;;;;;2.67;0.93;;;4.00;99.90;;;;;;5029202;28;20094;-70
2022/04/02 06:24:35;;;;;;;3.13;1.02;;;4.00;99.90;;;;;;4997983;28;20083;-69
2022/04/02 06:27:02;;;;;;;2.75;1.00;;;4.00;99.90;;;;;;5035705;28;20132;-69
2022/04/02 06:29:29;;;;;;;4.63;1.10;;;4.10;99.90;;;;;;5018157;28;20038;-70
2022/04/02 06:31:55;;;;;;;3.00;1.20;;;4.10;99.90;;;;;;5025201;28;20083;-70
2022/04/02 06:34:22;;;;;;;2.63;1.38;;;4.20;99.90;;;;;;5026048;28;20041;-69
2022/04/02 06:36:48;;;;;;;2.15;1.00;;;4.20;99.90;;;;;;5004932;28;20334;-70
2022/04/02 06:39:14;;;;;;;2.72;1.10;;;4.30;99.90;;;;;;5015282;28;20049;-70
2022/04/02 06:41:41;;;;;;;3.78;1.08;;;4.40;99.90;;;;;;5033999;28;20096;-71
2022/04/02 06:44:08;;;;;;;1.90;0.90;;;4.40;99.90;;;;;;5024245;28;20041;-72
2022/04/02 06:46:38;;;;;;;3.72;1.00;;;4.50;99.90;;;;;;5020313;28;20126;-70
2022/04/02 06:49:09;;;;;;;1.95;0.73;;;4.60;99.90;;;;;;5020982;28;20046;-69
2022/04/02 06:51:36;;;;;;;3.60;2.45;;;4.70;99.90;;;;;;5035628;28;20061;-70
2022/04/02 06:54:04;;;;;;;1.67;0.80;;;4.80;99.90;;;;;;5003664;28;20046;-69
2022/04/02 06:56:31;;;;;;;3.17;1.20;;;4.90;99.90;;;;;;5024243;28;20037;-69
2022/04/02 06:58:57;;;;;;;2.65;1.02;;;5.00;99.90;;;;;;5039808;28;20037;-69
2022/04/02 07:01:23;;;;;;;2.47;1.10;;;5.10;99.90;;;;;;5023276;28;20050;-71
2022/04/02 07:03:49;;;;;;;2.38;1.45;;;5.30;99.90;;;;;;5024002;28;20088;-71
2022/04/02 07:06:16;;;;;;;3.17;1.25;;;5.40;99.90;;;;;;5032664;28;20037;-71
2022/04/02 07:08:42;;;;;;;1.95;1.10;;;5.40;99.90;;;;;;5039434;28;20048;-71
2022/04/02 07:11:08;;;;;;;2.20;0.90;;;5.50;99.90;;;;;;5016854;28;20030;-70
2022/04/02 07:13:35;;;;;;;3.67;1.27;;;5.50;99.90;;;;;;5038953;28;20092;-71
2022/04/02 07:16:02;;;;;;;3.97;1.08;;;5.50;99.60;;;;;;5020890;28;20481;-70
2022/04/02 07:18:32;;;;;;;1.83;1.13;;;5.60;99.80;;;;;;5001603;28;20121;-70
2022/04/02 07:21:00;;;;;;;2.05;1.00;;;5.70;99.50;;;;;;5036705;28;20105;-71
2022/04/02 07:23:29;;;;;;;4.10;1.27;;;5.70;98.80;;;;;;5032749;28;20047;-73
2022/04/02 07:25:55;;;;;;;1.73;1.00;;;5.80;99.30;;;;;;5027164;28;20554;-71
2022/04/02 07:28:22;;;;;;;2.28;1.10;;;5.90;99.10;;;;;;5028134;28;20402;-71
2022/04/02 07:30:50;;;;;;;1.92;1.00;;;5.70;99.50;;;;;;4989138;28;20057;-71
2022/04/02 07:33:17;;;;;;;2.00;0.98;;;5.60;99.00;;;;;;5038714;28;20124;-71
2022/04/02 07:35:50;;;;;;;3.95;1.35;;;5.60;99.60;;;;;;5036623;28;20366;-70
2022/04/02 07:38:39;;;;;;;2.42;1.00;;;5.40;99.70;;;;;;5000712;28;20071;-70
2022/04/02 07:41:23;;;;;;;2.03;1.10;;;5.30;99.60;;;;;;5021075;28;20680;-71
2022/04/02 07:44:02;;;;;;;1.17;0.80;;;5.30;99.90;;;;;;5007558;28;20124;-70
2022/04/02 07:46:30;;;;;;;1.80;0.90;;;5.30;99.90;;;;;;5019425;28;20037;-71
2022/04/02 07:48:58;;;;;;;1.40;0.90;;;5.30;99.20;;;;;;5020238;28;20034;-72
2022/04/02 07:51:30;;;;;;;1.08;0.82;;;5.40;99.80;;;;;;5012583;28;20052;-69
2022/04/02 07:54:02;;;;;;;1.92;0.85;;;5.30;99.70;;;;;;5017586;28;20083;-70
2022/04/02 07:56:37;;;;;;;1.15;0.82;;;5.40;99.90;;;;;;5033456;28;20396;-71
2022/04/02 07:59:10;;;;;;;2.00;1.00;;;5.60;99.60;;;;;;5003017;28;20520;-71
2022/04/02 08:01:36;;;;;;;1.58;0.90;;;5.70;99.30;;;;;;5043006;28;20048;-70
2022/04/02 08:04:06;;;;;;;2.58;0.98;;;5.80;99.10;;;;;;5004406;28;20038;-72
2022/04/02 08:06:40;;;;;;;2.70;1.00;;;6.00;98.80;;;;;;5034378;28;20041;-74
2022/04/02 08:09:10;;;;;;;2.95;1.20;;;6.20;98.40;;;;;;5039356;28;20068;-71
2022/04/02 08:11:39;;;;;;;3.60;0.88;;;6.40;97.90;;;;;;5041090;28;20049;-72
2022/04/02 08:14:08;;;;;;;2.65;1.02;;;6.40;97.40;;;;;;5037643;28;20041;-73
2022/04/02 08:16:42;;;;;;;1.70;1.00;;;6.60;97.10;;;;;;5019301;28;20048;-71
2022/04/02 08:19:10;;;;;;;3.45;0.90;;;6.80;96.50;;;;;;4997418;28;20065;-71
2022/04/02 08:21:37;;;;;;;2.22;1.05;;;6.80;96.00;;;;;;4994762;28;20088;-70
2022/04/02 08:24:05;;;;;;;1.38;0.82;;;6.90;95.90;;;;;;4995609;28;20060;-72
2022/04/02 08:26:50;;;;;;;3.88;0.88;;;7.10;95.70;;;;;;5037186;28;20073;-71
2022/04/02 08:29:43;;;;;;;2.25;0.73;;;7.20;95.00;;;;;;5021120;28;20632;-71
2022/04/02 08:32:42;;;;;;;2.10;1.05;;;7.40;94.80;;;;;;5027577;28;20042;-71
2022/04/02 08:35:10;;;;;;;1.63;0.85;;;7.90;93.90;;;;;;5014158;28;20136;-72
2022/04/02 08:38:01;;;;;;;2.95;0.98;;;10.00;91.90;;;;;;5009842;28;20555;-73
2022/04/02 08:40:48;;;;;;;2.17;0.80;;;9.50;90.50;;;;;;5021947;28;20077;-72
2022/04/02 08:43:59;;;;;;;1.33;0.85;;;10.00;90.40;;;;;;5004408;28;20072;-72
2022/04/02 08:47:07;;;;;;;4.25;1.00;;;10.10;89.20;;;;;;4993781;28;20429;-71
2022/04/02 08:49:36;;;;;;;1.85;0.80;;;11.10;87.70;;;;;;5004957;28;20155;-70
2022/04/02 08:52:13;;;;;;;1.40;0.77;;;12.30;85.00;;;;;;5005060;28;20050;-71
2022/04/02 08:55:07;;;;;;;1.85;0.90;;;11.90;85.00;;;;;;5021502;28;20041;-71
2022/04/02 08:57:42;;;;;;;2.95;0.93;;;12.70;83.40;;;;;;5031078;28;20137;-72
2022/04/02 09:00:12;;;;;;;4.28;0.73;;;13.20;81.00;;;;;;4993644;28;20037;-72
2022/04/02 09:02:54;;;;;;;2.55;0.88;;;14.30;79.80;;;;;;5030146;28;20088;-71
2022/04/02 09:05:57;;;;;;;3.42;0.90;;;14.70;77.00;;;;;;4998585;28;20048;-71
2022/04/02 09:08:44;;;;;;;3.17;1.08;;;14.40;75.50;;;;;;5017728;28;20520;-71
2022/04/02 09:11:36;;;;;;;3.95;1.02;;;13.70;76.10;;;;;;4999007;28;20511;-72
2022/04/02 09:14:30;;;;;;;4.03;1.20;;;13.90;76.50;;;;;;5016187;28;20363;-71
2022/04/02 09:17:24;;;;;;;4.70;1.60;;;13.40;77.20;;;;;;5008586;28;20058;-71
2022/04/02 09:20:21;;;;;;;2.78;0.80;;;12.70;77.80;;;;;;5017159;28;20050;-71
2022/04/02 09:23:35;;;;;;;1.88;1.15;;;13.90;76.60;;;;;;5002099;28;20033;-72
2022/04/02 09:26:31;;;;;;;4.00;1.05;;;15.20;75.40;;;;;;4985640;28;20112;-71
2022/04/02 09:29:16;;;;;;;2.28;0.95;;;14.60;76.40;;;;;;4999695;28;20041;-71
2022/04/02 09:32:12;;;;;;;1.65;0.80;;;13.50;76.00;;;;;;4997931;28;20037;-71
2022/04/02 09:34:41;;;;;;;1.80;0.98;;;13.70;76.10;;;;;;4999505;28;20069;-72
2022/04/02 09:37:33;;;;;;;4.40;1.30;;;12.30;76.50;;;;;;5011586;28;20038;-71
2022/04/02 09:40:06;;;;;;;2.08;1.00;;;12.00;77.40;;;;;;5008941;28;20037;-72
2022/04/02 09:42:44;;;;;;;4.32;1.00;;;12.00;78.50;;;;;;5002877;28;20038;-71
2022/04/02 09:45:16;;;;;;;2.22;1.10;;;12.60;76.40;;;;;;4996229;28;20034;-71
2022/04/02 09:47:51;;;;;;;2.70;1.00;;;13.00;76.70;;;;;;5012807;28;20046;-72
2022/04/02 09:50:24;;;;;;;2.45;1.05;;;13.10;75.50;;;;;;4997785;28;20049;-71
2022/04/02 09:53:09;;;;;;;5.85;1.38;;;14.10;75.50;;;;;;4994694;28;20040;-70
2022/04/02 09:55:56;;;;;;;3.85;1.15;;;14.00;75.60;;;;;;4996454;28;20397;-72
2022/04/02 09:58:22;;;;;;;2.97;1.00;;;13.40;75.20;;;;;;5006580;28;20091;-71
2022/04/02 10:01:08;;;;;;;4.85;0.85;;;13.40;74.80;;;;;;4987609;28;20452;-72
2022/04/02 10:03:57;;;;;;;2.20;0.98;;;12.80;75.30;;;;;;4997377;28;20026;-72
2022/04/02 10:06:35;;;;;;;4.80;1.20;;;13.10;75.80;;;;;;4975305;28;20046;-70
2022/04/02 10:09:12;;;;;;;4.20;1.25;;;12.70;75.30;;;;;;5017464;28;20046;-71
2022/04/02 10:11:59;;;;;;;1.88;0.90;;;12.00;76.20;;;;;;5021046;28;20757;-72
2022/04/02 10:14:28;;;;;;;4.93;1.00;;;11.90;76.50;;;;;;5010015;28;20042;-71
2022/04/02 10:17:14;;;;;;;4.45;1.10;;;12.00;76.20;;;;;;5013685;28;20401;-73
2022/04/02 10:19:43;;;;;;;3.28;0.90;;;12.20;76.30;;;;;;4998299;28;20030;-72
2022/04/02 10:22:12;;;;;;;3.10;0.80;;;12.40;76.10;;;;;;5021903;28;20593;-73
2022/04/02 10:24:39;;;;;;;2.70;1.10;;;12.50;74.30;;;;;;5015146;28;20038;-73
2022/04/02 10:27:10;;;;;;;2.50;0.90;;;12.00;75.10;;;;;;4988022;28;20045;-76
2022/04/02 10:30:01;;;;;;;2.45;0.95;;;12.40;75.00;;;;;;5012582;28;20042;-72
2022/04/02 10:32:55;;;;;;;3.10;1.13;;;12.20;74.70;;;;;;5012835;28;20643;-74
2022/04/02 10:35:23;;;;;;;2.13;1.17;;;12.30;74.40;;;;;;4980040;28;20554;-73
2022/04/02 10:38:08;;;;;;;4.10;0.77;;;12.70;74.40;;;;;;5013074;28;20043;-74
2022/04/02 10:40:41;;;;;;;1.42;1.00;;;13.00;73.10;;;;;;5000529;28;20049;-75
2022/04/02 10:43:33;;;;;;;2.20;0.90;;;12.80;72.70;;;;;;4999293;28;20042;-72
2022/04/02 10:46:03;;;;;;;5.28;1.10;;;13.30;72.90;;;;;;4989981;28;20038;-71
2022/04/02 10:49:00;;;;;;;2.58;1.00;;;12.70;73.10;;;;;;5000667;28;20041;-71
2022/04/02 10:51:29;;;;;;;1.85;1.00;;;12.50;73.50;;;;;;5027161;28;20038;-73
2022/04/02 10:54:08;;;;;;;2.45;1.00;;;12.00;73.90;;;;;;5026610;28;20042;-73
2022/04/02 10:56:55;;;;;;;4.65;1.10;;;12.40;73.50;;;;;;5022464;28;20378;-73
2022/04/02 10:59:30;;;;;;;2.53;1.15;;;12.30;74.50;;;;;;4997285;28;20038;-76
2022/04/02 11:02:08;;;;;;;3.25;1.20;;;12.80;73.70;;;;;;5033043;28;20046;-76
2022/04/02 11:04:53;;;;;;;1.73;1.05;;;13.10;72.80;;;;;;5022429;28;20030;-74
2022/04/02 11:07:43;;;;;;;1.90;0.93;;;13.00;72.30;;;;;;5022454;28;20096;-73
2022/04/02 11:10:16;;;;;;;1.98;1.00;;;13.00;73.00;;;;;;5035273;28;20033;-71
2022/04/02 11:12:45;;;;;;;3.55;1.00;;;13.00;72.60;;;;;;5038956;28;20100;-73
2022/04/02 11:15:27;;;;;;;2.88;0.90;;;12.80;71.30;;;;;;5035340;28;20101;-76
2022/04/02 11:18:01;;;;;;;2.15;0.90;;;12.10;72.40;;;;;;5023005;28;20084;-74
2022/04/02 11:20:33;;;;;;;4.68;1.13;;;12.30;73.30;;;;;;5005490;28;20072;-71
2022/04/02 11:23:16;;;;;;;3.60;1.35;;;12.60;72.90;;;;;;5027202;28;20037;-71
2022/04/02 11:25:54;;;;;;;2.88;1.23;;;12.20;73.50;;;;;;5036383;28;20067;-72
2022/04/02 11:28:23;;;;;;;5.15;1.20;;;12.20;73.20;;;;;;5035493;28;20030;-72
2022/04/02 11:30:50;;;;;;;5.35;1.42;;;12.80;73.50;;;;;;5003167;28;20708;-70
2022/04/02 11:33:26;;;;;;;4.15;1.10;;;12.70;72.30;;;;;;5005822;28;20030;-72
2022/04/02 11:35:53;;;;;;;3.65;1.10;;;12.90;72.20;;;;;;5021101;28;20117;-71
2022/04/02 11:38:20;;;;;;;1.92;1.20;;;13.00;71.80;;;;;;4997152;28;20480;-74
2022/04/02 11:41:15;;;;;;;2.22;1.10;;;12.90;71.60;;;;;;5016825;28;20387;-72
2022/04/02 11:43:43;;;;;;;2.38;1.00;;;12.80;72.40;;;;;;4998048;28;20332;-71
2022/04/02 11:46:13;;;;;;;4.50;1.20;;;13.30;71.60;;;;;;5012880;28;20111;-71
2022/04/02 11:49:00;;;;;;;4.40;1.13;;;13.50;71.70;;;;;;5021012;28;20096;-72
2022/04/02 11:51:29;;;;;;;5.75;1.20;;;13.30;71.10;;;;;;5016100;28;20041;-72
2022/04/02 11:54:04;;;;;;;5.70;1.45;;;14.00;71.50;;;;;;5028940;28;20029;-73
2022/04/02 11:56:34;;;;;;;4.15;1.38;;;14.30;69.60;;;;;;5037680;28;20041;-72
2022/04/02 11:59:06;;;;;;;3.83;1.23;;;13.50;70.70;;;;;;5034269;28;20045;-72
2022/04/02 12:01:43;;;;;;;2.67;1.30;;;13.60;70.50;;;;;;5037960;28;20052;-72
2022/04/02 12:04:13;;;;;;;4.80;1.13;;;14.20;70.00;;;;;;5020070;28;20048;-74
2022/04/02 12:06:41;;;;;;;1.65;1.10;;;14.90;69.90;;;;;;5023357;28;20053;-73
2022/04/02 12:09:11;;;;;;;3.33;1.00;;;14.30;69.70;;;;;;5018373;28;20034;-73
2022/04/02 12:11:42;;;;;;;3.15;1.42;;;14.30;69.90;;;;;;5003847;28;20060;-73
2022/04/02 12:14:08;;;;;;;3.55;1.10;;;15.00;69.30;;;;;;5020651;28;21026;-73
2022/04/02 12:16:38;;;;;;;3.70;1.40;;;15.70;69.00;;;;;;5023960;28;20034;-72
2022/04/02 12:19:07;;;;;;;2.55;1.25;;;15.50;67.90;;;;;;5020644;28;20476;-73
2022/04/02 12:21:43;;;;;;;2.72;0.98;;;15.60;68.30;;;;;;5021391;28;20042;-73
2022/04/02 12:24:11;;;;;;;2.25;1.15;;;16.00;67.30;;;;;;5024081;28;20505;-72
2022/04/02 12:26:37;;;;;;;2.08;1.20;;;15.70;66.70;;;;;;5022371;28;20544;-73
2022/04/02 12:29:04;;;;;;;5.13;1.20;;;15.90;66.60;;;;;;5017885;28;20045;-72
2022/04/02 12:31:33;;;;;;;1.80;0.98;;;16.10;67.20;;;;;;5022432;28;20497;-72
2022/04/02 12:33:59;;;;;;;6.03;1.23;;;15.30;66.60;;;;;;5035529;28;20048;-73
2022/04/02 12:36:29;;;;;;;4.28;1.10;;;15.40;66.80;;;;;;5019422;28;20041;-71
2022/04/02 12:39:05;;;;;;;3.08;0.90;;;15.90;65.20;;;;;;5034568;28;20033;-70
2022/04/02 12:41:31;;;;;;;2.83;1.30;;;15.90;66.00;;;;;;5001197;28;20053;-72
2022/04/02 12:44:03;;;;;;;3.40;1.00;;;16.00;65.90;;;;;;5020877;28;20038;-71
2022/04/02 12:46:30;;;;;;;2.38;1.30;;;16.10;65.40;;;;;;4998094;28;20049;-71
2022/04/02 12:48:57;;;;;;;12.10;1.50;;;16.20;65.60;;;;;;5022590;28;20046;-70
2022/04/02 12:51:26;;;;;;;2.08;0.80;;;16.20;64.20;;;;;;5033713;28;20064;-71
2022/04/02 12:54:01;;;;;;;3.38;1.27;;;16.30;65.10;;;;;;5018267;28;20497;-72
2022/04/02 12:56:33;;;;;;;1.52;1.00;;;16.70;63.50;;;;;;5000061;28;20042;-72
2022/04/02 12:59:02;;;;;;;6.93;1.50;;;16.50;63.20;;;;;;5020254;28;20056;-71
2022/04/02 13:01:33;;;;;;;3.22;1.30;;;16.20;64.60;;;;;;5017612;28;20063;-71
2022/04/02 13:04:13;;;;;;;6.28;1.85;;;16.80;64.20;;;;;;5020845;28;20084;-71
2022/04/02 13:06:43;;;;;;;3.72;1.52;;;17.40;62.90;;;;;;5033699;28;20065;-71
2022/04/02 13:09:16;;;;;;;5.63;1.25;;;16.30;63.30;;;;;;4999571;28;20070;-70
2022/04/02 13:11:45;;;;;;;2.22;0.93;;;17.20;63.40;;;;;;5018315;28;20048;-71
2022/04/02 13:14:42;;;;;;;3.05;1.30;;;17.20;62.90;;;;;;5002443;28;20168;-71
2022/04/02 13:17:10;;;;;;;2.63;1.05;;;16.80;63.20;;;;;;4985481;28;20037;-71
2022/04/02 13:22:50;;;;;;;2.85;1.40;;;18.30;63.40;;;;;;5005287;28;20084;-72